Time;durP1;ratioP1;P1;durP2;ratioP2;P2;SDS_P1;SDS_P2;PMS_P1;PMS_P2;Temp;Humidity;BMP_temperature;BMP_pressure;BME280_temperature;BME280_humidity;BME280_pressure;Samples;Min_cycle;Max_cycle;Signal;HPM_P1;HPM_P2
2022/08/26 00:02:24;;;;;;;8.77;6.03;;;;;;;;;;5047297;28;20642;-69
2022/08/26 00:04:49;;;;;;;9.32;5.88;;;;;;;;;;5051607;28;20225;-68
2022/08/26 00:07:15;;;;;;;11.00;6.67;;;;;;;;;;5051922;28;20017;-69
2022/08/26 00:09:40;;;;;;;8.27;5.25;;;;;;;;;;5047389;28;20429;-68
2022/08/26 00:12:05;;;;;;;9.93;6.10;;;;;;;;;;5048244;28;20048;-69
2022/08/26 00:14:30;;;;;;;9.77;5.22;;;;;;;;;;5048626;28;20017;-69
2022/08/26 00:16:56;;;;;;;9.37;5.67;;;;;;;;;;5049509;28;20016;-68
2022/08/26 00:19:21;;;;;;;8.43;5.55;;;;;;;;;;5049220;28;20742;-69
2022/08/26 00:21:47;;;;;;;10.10;5.55;;;;;;;;;;5051217;28;20025;-68
2022/08/26 00:24:12;;;;;;;9.88;5.28;;;;;;;;;;5048608;28;20557;-69
2022/08/26 00:26:38;;;;;;;12.52;6.63;;;;;;;;;;5041960;28;20021;-68
2022/08/26 00:29:03;;;;;;;10.65;5.78;;;;;;;;;;5038794;28;20088;-69
2022/08/26 00:31:28;;;;;;;9.80;6.55;;;;;;;;;;5053161;28;20021;-68
2022/08/26 00:33:54;;;;;;;8.43;5.67;;;;;;;;;;5050702;28;20139;-68
2022/08/26 00:36:19;;;;;;;14.15;6.18;;;;;;;;;;5047973;28;20694;-68
2022/08/26 00:38:44;;;;;;;9.40;6.40;;;;;;;;;;5045753;28;20013;-67
2022/08/26 00:41:09;;;;;;;13.03;6.27;;;;;;;;;;5052692;28;20443;-68
2022/08/26 00:43:35;;;;;;;34.23;8.23;;;;;;;;;;5050768;28;20287;-67
2022/08/26 00:46:06;;;;;;;15.60;7.47;;;;;;;;;;5051271;28;20013;-69
2022/08/26 00:48:32;;;;;;;17.30;7.95;;;;;;;;;;5046772;28;20036;-68
2022/08/26 00:51:07;;;;;;;15.48;8.50;;;;;;;;;;5045859;28;20036;-69
2022/08/26 00:53:35;;;;;;;18.17;8.98;;;;;;;;;;5042880;28;20059;-69
2022/08/26 00:56:04;;;;;;;19.13;8.13;;;;;;;;;;5052214;28;20028;-69
2022/08/26 00:58:30;;;;;;;19.88;8.27;;;;;;;;;;5042041;28;20024;-68
2022/08/26 01:00:56;;;;;;;20.75;10.40;;;;;;;;;;5044267;28;20107;-69
2022/08/26 01:03:23;;;;;;;29.25;10.98;;;;;;;;;;5078893;23;20067;-71
2022/08/26 01:05:49;;;;;;;25.55;13.88;;;;;;;;;;5091182;28;20028;-67
2022/08/26 01:08:15;;;;;;;23.73;17.42;;;;;;;;;;5090470;28;20023;-67
2022/08/26 01:10:41;;;;;;;36.00;18.20;;;;;;;;;;5092393;28;20020;-67
2022/08/26 01:13:09;;;;;;;43.22;20.42;;;;;;;;;;5091558;28;20463;-68
2022/08/26 01:15:35;;;;;;;42.83;20.13;;;;;;;;;;5085649;28;20520;-68
2022/08/26 01:18:04;;;;;;;48.05;24.95;;;;;;;;;;5081685;28;20024;-68
2022/08/26 01:20:32;;;;;;;45.55;28.42;;;;;;;;;;5086610;28;20115;-67
2022/08/26 01:23:07;;;;;;;48.42;28.52;;;;;;;;;;5083828;28;20531;-67
2022/08/26 01:25:35;;;;;;;53.75;31.70;;;;;;;;;;5091917;28;20280;-67
2022/08/26 01:28:04;;;;;;;54.17;32.75;;;;;;;;;;5086506;28;20020;-68
2022/08/26 01:30:30;;;;;;;52.55;32.35;;;;;;;;;;5092108;28;20575;-67
2022/08/26 01:32:56;;;;;;;52.65;32.88;;;;;;;;;;5086140;28;20099;-68
2022/08/26 01:35:21;;;;;;;55.83;34.63;;;;;;;;;;5086956;28;20005;-69
2022/08/26 01:37:48;;;;;;;57.75;36.47;;;;;;;;;;5085885;28;20028;-69
2022/08/26 01:40:16;;;;;;;53.90;37.88;;;;;;;;;;5084862;28;20028;-69
2022/08/26 01:42:42;;;;;;;61.40;39.97;;;;;;;;;;5088752;28;20024;-68
2022/08/26 01:45:17;;;;;;;64.45;42.83;;;;;;;;;;5091711;28;20055;-69
2022/08/26 01:47:43;;;;;;;65.22;43.38;;;;;;;;;;5088364;28;20046;-69
2022/08/26 01:50:11;;;;;;;67.03;41.85;;;;;;;;;;5083313;28;20016;-70
2022/08/26 01:52:38;;;;;;;65.18;41.90;;;;;;;;;;5083434;28;20046;-69
2022/08/26 01:55:04;;;;;;;58.95;39.33;;;;;;;;;;5081815;28;20491;-68
2022/08/26 01:57:29;;;;;;;66.55;41.25;;;;;;;;;;5084928;28;20024;-70
2022/08/26 01:59:57;;;;;;;66.88;44.80;;;;;;;;;;5086605;28;20028;-70
2022/08/26 02:02:22;;;;;;;64.55;43.00;;;;;;;;;;5088279;28;20484;-69
2022/08/26 02:04:49;;;;;;;71.97;46.45;;;;;;;;;;5091284;28;20092;-68
2022/08/26 02:07:16;;;;;;;70.32;44.83;;;;;;;;;;5083800;28;20020;-69
2022/08/26 02:09:41;;;;;;;81.10;54.38;;;;;;;;;;5090028;28;20456;-69
2022/08/26 02:12:07;;;;;;;70.82;48.65;;;;;;;;;;5088407;28;20038;-70
2022/08/26 02:14:34;;;;;;;83.88;53.33;;;;;;;;;;5089473;28;20024;-69
2022/08/26 02:17:00;;;;;;;72.45;48.88;;;;;;;;;;5083929;28;20277;-68
2022/08/26 02:19:27;;;;;;;86.03;58.38;;;;;;;;;;5088963;28;20447;-69
2022/08/26 02:21:53;;;;;;;80.95;56.15;;;;;;;;;;5082683;28;20020;-67
2022/08/26 02:24:20;;;;;;;91.13;57.28;;;;;;;;;;5083129;28;20099;-70
2022/08/26 02:26:46;;;;;;;87.18;57.58;;;;;;;;;;5081663;28;20523;-65
2022/08/26 02:29:31;;;;;;;87.20;58.72;;;;;;;;;;5089008;28;20111;-70
2022/08/26 02:31:57;;;;;;;96.38;61.92;;;;;;;;;;5087692;28;20035;-69
2022/08/26 02:34:26;;;;;;;96.13;64.32;;;;;;;;;;5088879;28;20025;-69
2022/08/26 02:36:51;;;;;;;101.03;63.53;;;;;;;;;;5086243;28;20542;-69
2022/08/26 02:39:17;;;;;;;109.18;68.15;;;;;;;;;;5089052;28;20043;-68
2022/08/26 02:41:42;;;;;;;97.13;64.05;;;;;;;;;;5079179;28;20107;-69
2022/08/26 02:44:08;;;;;;;98.13;65.53;;;;;;;;;;5090206;28;20043;-70
2022/08/26 02:46:33;;;;;;;98.53;64.30;;;;;;;;;;5072848;28;20385;-68
2022/08/26 02:49:00;;;;;;;99.88;65.43;;;;;;;;;;5088062;28;20107;-69
2022/08/26 02:51:25;;;;;;;101.25;66.07;;;;;;;;;;5089826;28;20016;-68
2022/08/26 02:53:50;;;;;;;93.80;66.05;;;;;;;;;;5075687;28;20031;-69
2022/08/26 02:56:15;;;;;;;94.67;63.93;;;;;;;;;;5085908;28;20434;-67
2022/08/26 02:58:40;;;;;;;92.50;63.67;;;;;;;;;;5090130;28;20118;-69
2022/08/26 03:01:06;;;;;;;99.80;66.30;;;;;;;;;;5088391;28;20024;-69
2022/08/26 03:03:31;;;;;;;102.67;67.10;;;;;;;;;;5086018;28;20024;-70
2022/08/26 03:05:57;;;;;;;95.47;63.03;;;;;;;;;;5085935;28;20802;-69
2022/08/26 03:08:22;;;;;;;91.55;61.80;;;;;;;;;;5087173;28;20111;-68
2022/08/26 03:10:47;;;;;;;101.20;63.67;;;;;;;;;;5088263;28;20016;-69
2022/08/26 03:13:13;;;;;;;100.77;63.70;;;;;;;;;;5089850;28;20077;-69
2022/08/26 03:15:38;;;;;;;96.45;62.78;;;;;;;;;;5082969;28;20292;-66
2022/08/26 03:18:04;;;;;;;90.30;63.40;;;;;;;;;;5088880;28;20020;-69
2022/08/26 03:20:29;;;;;;;94.10;60.00;;;;;;;;;;5085050;28;20028;-68
2022/08/26 03:22:55;;;;;;;94.72;62.60;;;;;;;;;;5089185;28;20058;-68
2022/08/26 03:25:21;;;;;;;88.60;56.60;;;;;;;;;;5082418;28;20008;-69
2022/08/26 03:27:46;;;;;;;94.32;57.88;;;;;;;;;;5079032;28;20468;-69
2022/08/26 03:32:56;;;;;;;85.40;59.00;;;;;;;;;;5079597;28;20039;-69
2022/08/26 03:35:21;;;;;;;88.03;60.05;;;;;;;;;;5085076;28;20012;-69
2022/08/26 03:37:46;;;;;;;87.35;56.33;;;;;;;;;;5076276;28;20138;-69
2022/08/26 03:40:12;;;;;;;83.10;53.00;;;;;;;;;;5088527;28;20020;-69
2022/08/26 03:42:38;;;;;;;78.32;53.35;;;;;;;;;;5088141;28;20169;-69
2022/08/26 03:45:04;;;;;;;82.15;52.63;;;;;;;;;;5087856;28;20456;-69
2022/08/26 03:47:30;;;;;;;79.05;52.17;;;;;;;;;;5077313;28;20036;-69
2022/08/26 03:49:56;;;;;;;92.07;55.42;;;;;;;;;;5078070;28;20078;-68
2022/08/26 03:52:21;;;;;;;80.53;52.28;;;;;;;;;;5075470;28;20024;-69
2022/08/26 03:54:46;;;;;;;77.57;51.83;;;;;;;;;;5085104;28;20048;-69
2022/08/26 03:57:11;;;;;;;72.10;50.27;;;;;;;;;;5083586;28;20031;-69
2022/08/26 03:59:36;;;;;;;83.20;54.03;;;;;;;;;;5087658;28;20024;-69
2022/08/26 04:02:01;;;;;;;82.67;51.37;;;;;;;;;;5085264;28;20033;-70
2022/08/26 04:04:27;;;;;;;79.93;51.20;;;;;;;;;;5084488;28;20093;-69
2022/08/26 04:06:55;;;;;;;80.57;50.47;;;;;;;;;;5081319;28;20480;-68
2022/08/26 04:09:20;;;;;;;79.45;49.72;;;;;;;;;;5088120;28;20016;-69
2022/08/26 04:11:46;;;;;;;86.23;53.57;;;;;;;;;;5083734;28;20024;-69
2022/08/26 04:14:13;;;;;;;93.95;53.47;;;;;;;;;;5093747;28;20599;-68
2022/08/26 04:16:38;;;;;;;95.75;54.03;;;;;;;;;;5083770;28;20116;-69
2022/08/26 04:19:03;;;;;;;98.90;54.28;;;;;;;;;;5084558;28;20099;-69
2022/08/26 04:21:29;;;;;;;107.60;53.93;;;;;;;;;;5086879;28;20528;-69
2022/08/26 04:23:54;;;;;;;91.63;53.90;;;;;;;;;;5093071;28;20274;-69
2022/08/26 04:26:21;;;;;;;100.00;52.60;;;;;;;;;;5078176;28;20048;-70
2022/08/26 04:28:46;;;;;;;99.57;53.67;;;;;;;;;;5084098;28;20065;-68
2022/08/26 04:31:13;;;;;;;116.60;57.15;;;;;;;;;;5089983;28;20059;-70
2022/08/26 04:33:39;;;;;;;100.40;53.00;;;;;;;;;;5088916;28;20020;-69
2022/08/26 04:36:04;;;;;;;97.28;52.38;;;;;;;;;;5087730;28;20031;-70
2022/08/26 04:38:30;;;;;;;97.95;51.10;;;;;;;;;;5087236;28;20388;-70
2022/08/26 04:40:55;;;;;;;96.13;51.67;;;;;;;;;;5090054;28;20024;-67
2022/08/26 04:43:20;;;;;;;108.80;51.90;;;;;;;;;;5085015;28;20039;-69
2022/08/26 04:45:45;;;;;;;92.93;49.22;;;;;;;;;;5078694;28;20017;-66
2022/08/26 04:48:11;;;;;;;88.40;50.90;;;;;;;;;;5085385;28;20035;-69
2022/08/26 04:50:36;;;;;;;90.68;48.38;;;;;;;;;;5092848;28;20016;-69
2022/08/26 04:53:03;;;;;;;86.57;48.72;;;;;;;;;;5092837;28;20370;-68
2022/08/26 04:55:28;;;;;;;84.90;46.80;;;;;;;;;;5092273;28;20015;-67
2022/08/26 04:57:53;;;;;;;79.50;44.67;;;;;;;;;;5084630;28;20024;-69
2022/08/26 05:00:18;;;;;;;81.17;46.50;;;;;;;;;;5087630;28;20042;-69
2022/08/26 05:02:44;;;;;;;82.78;42.63;;;;;;;;;;5086723;28;20483;-69
2022/08/26 05:05:10;;;;;;;75.65;45.05;;;;;;;;;;5092257;28;20081;-69
2022/08/26 05:07:35;;;;;;;72.10;40.03;;;;;;;;;;5086357;28;20025;-70
2022/08/26 05:10:01;;;;;;;65.57;39.13;;;;;;;;;;5090802;28;20018;-70
2022/08/26 05:12:27;;;;;;;77.95;39.17;;;;;;;;;;5092658;28;20247;-69
2022/08/26 05:14:52;;;;;;;71.35;37.90;;;;;;;;;;5083572;28;20017;-70
2022/08/26 05:17:18;;;;;;;59.13;36.60;;;;;;;;;;5088652;28;20042;-70
2022/08/26 05:19:43;;;;;;;60.93;34.17;;;;;;;;;;5088645;28;20067;-70
2022/08/26 05:22:08;;;;;;;61.70;35.45;;;;;;;;;;5086743;28;20737;-70
2022/08/26 05:24:33;;;;;;;59.70;34.08;;;;;;;;;;5068595;28;20044;-70
2022/08/26 05:26:58;;;;;;;58.35;33.63;;;;;;;;;;5089172;28;20051;-69
2022/08/26 05:29:24;;;;;;;52.00;31.53;;;;;;;;;;5077609;28;20431;-71
2022/08/26 05:31:50;;;;;;;58.07;33.33;;;;;;;;;;5091905;28;20339;-69
2022/08/26 05:34:15;;;;;;;54.25;32.15;;;;;;;;;;5086106;28;20024;-68
2022/08/26 05:36:40;;;;;;;50.23;31.23;;;;;;;;;;5091226;28;20032;-70
2022/08/26 05:39:06;;;;;;;47.00;28.83;;;;;;;;;;5078073;28;20307;-70
2022/08/26 05:41:33;;;;;;;47.03;27.83;;;;;;;;;;5091815;28;20384;-69
2022/08/26 05:43:59;;;;;;;55.75;29.95;;;;;;;;;;5086185;28;20439;-70
2022/08/26 05:46:25;;;;;;;43.70;26.58;;;;;;;;;;5091445;28;20101;-70
2022/08/26 05:48:51;;;;;;;43.45;26.98;;;;;;;;;;5085447;28;20031;-70
2022/08/26 05:51:16;;;;;;;40.50;26.35;;;;;;;;;;5091535;28;20008;-70
2022/08/26 05:53:41;;;;;;;51.87;28.03;;;;;;;;;;5091659;28;20115;-71
2022/08/26 05:56:08;;;;;;;47.88;26.35;;;;;;;;;;5088947;28;20028;-70
2022/08/26 05:58:34;;;;;;;52.55;27.85;;;;;;;;;;5080090;28;20024;-70
2022/08/26 06:01:04;;;;;;;46.03;27.77;;;;;;;;;;5089811;28;20019;-70
2022/08/26 06:03:30;;;;;;;51.90;26.63;;;;;;;;;;5089882;28;20045;-71
2022/08/26 06:05:55;;;;;;;42.00;23.52;;;;;;;;;;5084753;28;20062;-70
2022/08/26 06:08:20;;;;;;;52.85;26.60;;;;;;;;;;5086458;28;20015;-71
2022/08/26 06:10:48;;;;;;;56.47;24.92;;;;;;;;;;5083244;28;20043;-71
2022/08/26 06:13:13;;;;;;;45.10;25.90;;;;;;;;;;5082303;28;20412;-70
2022/08/26 06:15:40;;;;;;;45.97;24.23;;;;;;;;;;5083008;28;20091;-70
2022/08/26 06:18:06;;;;;;;42.20;24.55;;;;;;;;;;5086334;28;20438;-70
2022/08/26 06:20:31;;;;;;;37.42;21.80;;;;;;;;;;5083754;28;20021;-70
2022/08/26 06:25:40;;;;;;;43.03;22.13;;;;;;;;;;5084223;28;20043;-71
2022/08/26 06:28:06;;;;;;;33.60;21.10;;;;;;;;;;5087580;28;20008;-70
2022/08/26 06:30:32;;;;;;;34.85;20.60;;;;;;;;;;5084325;28;20475;-70
2022/08/26 06:32:58;;;;;;;36.30;20.17;;;;;;;;;;5091046;28;20476;-70
2022/08/26 06:35:23;;;;;;;36.50;19.65;;;;;;;;;;5084570;28;20032;-69
2022/08/26 06:37:48;;;;;;;47.13;19.90;;;;;;;;;;5086336;28;20024;-70
2022/08/26 06:40:13;;;;;;;31.80;18.70;;;;;;;;;;5085543;28;20038;-69
2022/08/26 06:42:38;;;;;;;42.73;20.30;;;;;;;;;;5089701;28;20264;-70
2022/08/26 06:45:04;;;;;;;32.35;18.50;;;;;;;;;;5085532;28;20342;-70
2022/08/26 06:47:30;;;;;;;30.48;19.23;;;;;;;;;;5086945;28;20467;-69
2022/08/26 06:49:55;;;;;;;39.05;21.58;;;;;;;;;;5084569;28;20138;-70
2022/08/26 06:52:20;;;;;;;36.95;20.55;;;;;;;;;;5076572;28;20139;-71
2022/08/26 06:54:45;;;;;;;38.30;20.23;;;;;;;;;;5086676;28;20077;-70
2022/08/26 06:57:11;;;;;;;39.47;22.03;;;;;;;;;;5087619;28;20384;-70
2022/08/26 06:59:36;;;;;;;36.97;22.90;;;;;;;;;;5086234;28;20028;-71
2022/08/26 07:02:02;;;;;;;41.13;20.73;;;;;;;;;;5089546;28;20089;-68
2022/08/26 07:04:27;;;;;;;33.65;21.65;;;;;;;;;;5103969;23;20372;-64
2022/08/26 07:06:52;;;;;;;35.42;22.02;;;;;;;;;;5088948;28;20016;-65
2022/08/26 07:09:18;;;;;;;40.30;23.75;;;;;;;;;;5088241;28;20031;-67
2022/08/26 07:11:43;;;;;;;33.38;20.80;;;;;;;;;;5088689;28;20028;-65
2022/08/26 07:14:09;;;;;;;42.65;21.17;;;;;;;;;;5077186;28;20020;-66
2022/08/26 07:16:34;;;;;;;34.10;19.63;;;;;;;;;;5070239;28;20465;-67
2022/08/26 07:19:00;;;;;;;31.92;19.48;;;;;;;;;;5070783;28;20016;-64
2022/08/26 07:21:25;;;;;;;38.47;19.75;;;;;;;;;;5070443;28;20091;-65
2022/08/26 07:23:51;;;;;;;38.00;20.77;;;;;;;;;;5070321;28;20027;-68
2022/08/26 07:26:19;;;;;;;37.28;22.10;;;;;;;;;;5068911;28;20267;-67
2022/08/26 07:28:45;;;;;;;44.30;24.17;;;;;;;;;;5069431;28;20495;-64
2022/08/26 07:31:11;;;;;;;36.40;22.33;;;;;;;;;;5068298;28;20024;-64
2022/08/26 07:33:38;;;;;;;34.65;20.77;;;;;;;;;;5068350;28;20341;-64
2022/08/26 07:36:04;;;;;;;35.72;19.63;;;;;;;;;;5067241;28;20131;-66
2022/08/26 07:38:29;;;;;;;36.28;18.85;;;;;;;;;;5070562;28;20129;-65
2022/08/26 07:40:54;;;;;;;35.20;22.60;;;;;;;;;;5072657;28;20453;-64
2022/08/26 07:43:20;;;;;;;35.05;19.30;;;;;;;;;;5071569;28;20040;-64
2022/08/26 07:45:46;;;;;;;41.58;22.20;;;;;;;;;;5070057;28;20021;-69
2022/08/26 07:48:11;;;;;;;34.38;21.80;;;;;;;;;;5073039;28;20069;-64
2022/08/26 07:50:36;;;;;;;30.98;19.30;;;;;;;;;;5072751;28;20388;-64
2022/08/26 07:53:02;;;;;;;36.55;21.92;;;;;;;;;;5072798;28;20012;-66
2022/08/26 07:55:28;;;;;;;40.20;23.17;;;;;;;;;;5072208;28;20058;-67
2022/08/26 07:57:53;;;;;;;30.75;22.15;;;;;;;;;;5070744;28;20476;-67
2022/08/26 08:00:19;;;;;;;40.93;22.37;;;;;;;;;;5071989;28;20210;-64
2022/08/26 08:02:45;;;;;;;30.52;20.05;;;;;;;;;;5073217;28;20017;-65
2022/08/26 08:05:11;;;;;;;37.28;19.38;;;;;;;;;;5070919;28;20328;-68
2022/08/26 08:07:36;;;;;;;34.42;21.67;;;;;;;;;;5072246;28;20496;-68
2022/08/26 08:10:03;;;;;;;33.90;20.33;;;;;;;;;;5072789;28;20055;-64
2022/08/26 08:12:28;;;;;;;40.90;21.05;;;;;;;;;;5073154;28;20020;-64
2022/08/26 08:14:53;;;;;;;39.67;21.07;;;;;;;;;;5069971;28;20598;-65
2022/08/26 08:17:18;;;;;;;34.45;19.45;;;;;;;;;;5058675;28;20615;-66
2022/08/26 08:19:44;;;;;;;31.43;21.07;;;;;;;;;;5070216;28;20035;-65
2022/08/26 08:22:09;;;;;;;34.05;20.70;;;;;;;;;;5071782;28;20795;-68
2022/08/26 08:24:34;;;;;;;42.13;22.70;;;;;;;;;;5068954;28;20488;-64
2022/08/26 08:27:00;;;;;;;39.53;25.73;;;;;;;;;;5064649;28;20028;-68
2022/08/26 08:29:28;;;;;;;41.90;26.08;;;;;;;;;;5072849;28;20375;-65
2022/08/26 08:31:53;;;;;;;38.03;24.23;;;;;;;;;;5070841;28;20112;-65
2022/08/26 08:34:18;;;;;;;43.03;24.63;;;;;;;;;;5071289;28;20109;-64
2022/08/26 08:36:45;;;;;;;34.87;24.33;;;;;;;;;;5071815;28;20086;-64
2022/08/26 08:39:10;;;;;;;35.47;24.05;;;;;;;;;;5071602;28;20107;-64
2022/08/26 08:41:54;;;;;;;39.38;23.35;;;;;;;;;;5071626;28;20457;-65
2022/08/26 08:44:21;;;;;;;35.72;20.40;;;;;;;;;;5066292;28;20016;-69
2022/08/26 08:46:49;;;;;;;30.80;19.20;;;;;;;;;;5061559;28;20070;-65
2022/08/26 08:49:14;;;;;;;30.40;18.42;;;;;;;;;;5068678;28;20443;-65
2022/08/26 08:51:52;;;;;;;25.50;16.83;;;;;;;;;;5070239;28;20103;-69
2022/08/26 08:54:18;;;;;;;30.80;17.08;;;;;;;;;;5071103;28;20495;-70
2022/08/26 08:56:45;;;;;;;30.05;18.90;;;;;;;;;;5082826;28;20116;-65
2022/08/26 08:59:10;;;;;;;31.35;16.65;;;;;;;;;;5071849;28;20031;-65
2022/08/26 09:01:55;;;;;;;31.35;17.33;;;;;;;;;;5069508;28;20025;-69
2022/08/26 09:04:31;;;;;;;30.48;17.10;;;;;;;;;;5072451;28;20027;-69
2022/08/26 09:06:58;;;;;;;36.30;18.10;;;;;;;;;;5071481;28;20052;-68
2022/08/26 09:09:33;;;;;;;33.50;17.23;;;;;;;;;;5072711;28;20092;-65
2022/08/26 09:11:59;;;;;;;25.98;15.48;;;;;;;;;;5071526;28;20029;-68
2022/08/26 09:14:26;;;;;;;26.35;13.43;;;;;;;;;;5071506;28;20021;-68
2022/08/26 09:16:58;;;;;;;28.92;14.18;;;;;;;;;;5070972;28;20434;-68
2022/08/26 09:19:29;;;;;;;32.08;13.52;;;;;;;;;;5070589;28;20123;-69
2022/08/26 09:21:55;;;;;;;26.40;13.13;;;;;;;;;;5071332;28;20476;-67
2022/08/26 09:24:21;;;;;;;24.50;13.25;;;;;;;;;;5059722;28;20028;-68
2022/08/26 09:26:46;;;;;;;25.93;13.67;;;;;;;;;;5071870;28;20453;-67
2022/08/26 09:29:19;;;;;;;22.20;11.27;;;;;;;;;;5069412;28;20679;-65
2022/08/26 09:31:45;;;;;;;25.35;13.88;;;;;;;;;;5071522;28;20082;-71
2022/08/26 09:34:21;;;;;;;30.65;15.15;;;;;;;;;;5071424;28;20020;-68
2022/08/26 09:36:49;;;;;;;22.10;12.82;;;;;;;;;;5075899;28;20048;-66
2022/08/26 09:39:23;;;;;;;22.25;14.27;;;;;;;;;;5076831;28;20385;-65
2022/08/26 09:42:01;;;;;;;33.58;13.63;;;;;;;;;;5073420;28;20027;-65
2022/08/26 09:44:26;;;;;;;18.85;12.75;;;;;;;;;;5065545;28;20044;-65
2022/08/26 09:46:53;;;;;;;18.70;12.00;;;;;;;;;;5084202;28;20430;-69
2022/08/26 09:49:25;;;;;;;23.52;12.77;;;;;;;;;;5071247;28;20075;-65
2022/08/26 09:52:08;;;;;;;22.70;12.63;;;;;;;;;;5070489;28;20089;-65
2022/08/26 09:54:33;;;;;;;21.17;12.52;;;;;;;;;;5067536;28;20029;-68
2022/08/26 09:57:18;;;;;;;25.98;11.68;;;;;;;;;;5071062;28;20099;-66
2022/08/26 09:59:43;;;;;;;22.40;13.68;;;;;;;;;;5066079;28;20017;-67
2022/08/26 10:02:27;;;;;;;20.03;12.37;;;;;;;;;;5069592;28;20529;-69
2022/08/26 10:04:54;;;;;;;21.05;12.27;;;;;;;;;;5069623;28;20306;-68
2022/08/26 10:07:54;;;;;;;28.75;15.77;;;;;;;;;;5076254;28;20376;-66
2022/08/26 10:10:25;;;;;;;23.92;14.38;;;;;;;;;;5034139;28;20492;-65
2022/08/26 10:13:13;;;;;;;27.60;12.88;;;;;;;;;;5064774;28;20037;-67
2022/08/26 10:15:42;;;;;;;20.60;12.73;;;;;;;;;;5071847;28;20484;-65
2022/08/26 10:18:13;;;;;;;25.25;15.90;;;;;;;;;;5069899;28;20400;-69
2022/08/26 10:20:43;;;;;;;26.50;15.43;;;;;;;;;;5069649;28;20082;-66
2022/08/26 10:23:11;;;;;;;26.27;15.93;;;;;;;;;;5072141;28;20083;-66
2022/08/26 10:25:41;;;;;;;28.27;14.93;;;;;;;;;;5070187;28;20481;-65
2022/08/26 10:28:15;;;;;;;23.98;13.90;;;;;;;;;;5067811;28;20032;-65
2022/08/26 10:30:43;;;;;;;32.47;15.13;;;;;;;;;;5070135;28;20477;-68
2022/08/26 10:33:10;;;;;;;31.90;16.73;;;;;;;;;;5067589;28;20078;-68
2022/08/26 10:35:40;;;;;;;28.13;15.50;;;;;;;;;;5069771;28;20020;-69
2022/08/26 10:38:13;;;;;;;27.60;15.30;;;;;;;;;;5068175;28;20051;-68
2022/08/26 10:40:44;;;;;;;25.25;15.18;;;;;;;;;;5069832;28;20017;-66
2022/08/26 10:43:15;;;;;;;21.55;10.90;;;;;;;;;;5063371;28;20016;-68
2022/08/26 10:45:49;;;;;;;22.58;10.80;;;;;;;;;;5069565;28;20025;-65
2022/08/26 10:48:26;;;;;;;22.27;9.65;;;;;;;;;;5070090;28;20016;-67
2022/08/26 10:50:51;;;;;;;21.15;10.35;;;;;;;;;;5071088;28;20229;-65
2022/08/26 10:53:17;;;;;;;47.65;12.80;;;;;;;;;;5068277;28;20496;-65
2022/08/26 10:55:50;;;;;;;38.78;13.38;;;;;;;;;;5070025;28;20464;-68
2022/08/26 10:58:36;;;;;;;32.45;14.68;;;;;;;;;;5064773;28;20163;-65
2022/08/26 11:03:59;;;;;;;51.45;30.88;;;;;;;;;;5067586;28;20145;-65
2022/08/26 11:06:26;;;;;;;55.25;32.08;;;;;;;;;;5069453;28;20040;-65
2022/08/26 11:08:55;;;;;;;53.63;33.53;;;;;;;;;;5067845;28;20477;-67
2022/08/26 11:11:39;;;;;;;59.63;36.08;;;;;;;;;;5069882;28;20024;-66
2022/08/26 11:14:06;;;;;;;58.75;36.90;;;;;;;;;;5068416;28;20472;-66
2022/08/26 11:17:01;;;;;;;59.58;34.85;;;;;;;;;;5070269;28;20032;-65
2022/08/26 11:19:29;;;;;;;56.22;34.33;;;;;;;;;;5043966;28;20060;-68
2022/08/26 11:22:20;;;;;;;55.80;33.10;;;;;;;;;;5068562;28;20016;-69
2022/08/26 11:24:51;;;;;;;55.90;34.70;;;;;;;;;;5063941;28;20123;-69
2022/08/26 11:27:25;;;;;;;52.45;32.25;;;;;;;;;;5055990;28;20023;-67
2022/08/26 11:30:00;;;;;;;50.28;32.65;;;;;;;;;;5068421;28;20666;-66
2022/08/26 11:32:46;;;;;;;45.60;31.77;;;;;;;;;;5069493;28;20033;-68
2022/08/26 11:35:11;;;;;;;41.20;31.20;;;;;;;;;;5055005;28;20024;-68
2022/08/26 11:37:43;;;;;;;50.20;30.67;;;;;;;;;;5065801;28;20028;-65
2022/08/26 11:40:10;;;;;;;42.17;29.75;;;;;;;;;;5067448;28;20266;-65
2022/08/26 11:42:39;;;;;;;44.58;27.67;;;;;;;;;;5069293;28;20024;-66
2022/08/26 11:45:26;;;;;;;43.15;27.73;;;;;;;;;;5069599;28;20029;-65
2022/08/26 11:47:51;;;;;;;37.78;24.38;;;;;;;;;;5068131;28;20473;-65
2022/08/26 11:50:20;;;;;;;38.92;26.05;;;;;;;;;;5069088;28;20062;-68
2022/08/26 11:52:53;;;;;;;34.65;24.83;;;;;;;;;;5066387;28;20530;-69
2022/08/26 11:55:19;;;;;;;38.60;24.45;;;;;;;;;;5060463;28;20028;-69
2022/08/26 11:57:46;;;;;;;40.90;23.33;;;;;;;;;;5069399;28;20024;-68
2022/08/26 12:00:38;;;;;;;32.45;21.95;;;;;;;;;;5069665;28;20048;-68
2022/08/26 12:03:05;;;;;;;36.13;22.02;;;;;;;;;;5063976;28;20036;-66
2022/08/26 12:05:33;;;;;;;33.28;20.25;;;;;;;;;;5064925;28;20481;-68
2022/08/26 12:08:01;;;;;;;37.40;22.63;;;;;;;;;;5066929;28;20028;-66
2022/08/26 12:10:32;;;;;;;34.20;20.35;;;;;;;;;;5068035;28;20028;-67
2022/08/26 12:12:58;;;;;;;25.08;15.35;;;;;;;;;;5069086;28;20082;-68
2022/08/26 12:15:23;;;;;;;37.38;16.27;;;;;;;;;;5068377;28;20037;-66
2022/08/26 12:17:49;;;;;;;28.65;14.57;;;;;;;;;;5069262;28;20033;-69
2022/08/26 12:20:28;;;;;;;33.53;16.70;;;;;;;;;;5067863;28;20021;-66
2022/08/26 12:22:55;;;;;;;25.98;16.65;;;;;;;;;;5067972;28;20110;-66
2022/08/26 12:25:21;;;;;;;26.67;15.68;;;;;;;;;;5060985;28;20082;-65
2022/08/26 12:27:46;;;;;;;31.40;16.02;;;;;;;;;;5071765;28;20059;-65
2022/08/26 12:30:12;;;;;;;31.27;20.67;;;;;;;;;;5072688;28;20477;-66
2022/08/26 12:32:38;;;;;;;33.77;24.53;;;;;;;;;;5067412;28;20012;-68
2022/08/26 12:35:06;;;;;;;36.28;24.80;;;;;;;;;;5072331;28;20259;-68
2022/08/26 12:37:33;;;;;;;29.65;21.67;;;;;;;;;;5069897;28;20081;-66
2022/08/26 12:40:21;;;;;;;31.42;22.35;;;;;;;;;;5072911;28;20020;-66
2022/08/26 12:42:46;;;;;;;32.70;20.27;;;;;;;;;;5062164;28;20052;-65
2022/08/26 12:45:12;;;;;;;31.57;20.97;;;;;;;;;;5072385;28;20020;-68
2022/08/26 12:47:38;;;;;;;27.83;18.63;;;;;;;;;;5071848;28;20271;-65
2022/08/26 12:50:16;;;;;;;26.25;16.98;;;;;;;;;;5069107;28;20283;-67
2022/08/26 12:52:49;;;;;;;33.53;17.58;;;;;;;;;;5070117;28;20044;-65
2022/08/26 12:55:21;;;;;;;29.17;17.33;;;;;;;;;;5071238;28;20024;-66
2022/08/26 12:57:46;;;;;;;33.50;15.65;;;;;;;;;;5068325;28;20365;-70
2022/08/26 13:00:21;;;;;;;21.17;13.18;;;;;;;;;;5070929;28;20035;-68
2022/08/26 13:02:46;;;;;;;22.85;11.80;;;;;;;;;;5071923;28;20020;-68
2022/08/26 13:05:22;;;;;;;18.23;10.37;;;;;;;;;;5072383;28;20366;-65
2022/08/26 13:08:07;;;;;;;17.33;9.38;;;;;;;;;;5063454;28;20281;-71
2022/08/26 13:10:34;;;;;;;22.48;9.95;;;;;;;;;;5070072;28;20158;-65
2022/08/26 13:12:59;;;;;;;16.50;9.02;;;;;;;;;;5068935;28;20036;-68
2022/08/26 13:15:24;;;;;;;14.67;7.03;;;;;;;;;;5071910;28;20518;-65
2022/08/26 13:17:50;;;;;;;20.30;7.17;;;;;;;;;;5069640;28;20040;-68
2022/08/26 13:20:15;;;;;;;14.93;5.75;;;;;;;;;;5071165;28;20095;-66
2022/08/26 13:22:41;;;;;;;11.00;5.80;;;;;;;;;;5072077;28;20024;-65
2022/08/26 13:25:06;;;;;;;12.80;7.63;;;;;;;;;;5070705;28;20301;-66
2022/08/26 13:27:31;;;;;;;18.75;7.07;;;;;;;;;;5070963;28;20274;-69
2022/08/26 13:29:57;;;;;;;13.38;7.90;;;;;;;;;;5068135;28;20025;-65
2022/08/26 13:32:23;;;;;;;13.80;6.72;;;;;;;;;;5062003;28;20055;-65
2022/08/26 13:34:49;;;;;;;16.45;6.60;;;;;;;;;;5070839;28;20048;-65
2022/08/26 13:37:14;;;;;;;18.80;7.40;;;;;;;;;;5071345;28;20024;-66
2022/08/26 13:39:40;;;;;;;12.82;7.45;;;;;;;;;;5070027;28;20487;-66
2022/08/26 13:42:06;;;;;;;15.68;8.20;;;;;;;;;;5070839;28;20588;-68
2022/08/26 13:44:31;;;;;;;15.18;4.70;;;;;;;;;;5069856;28;20103;-65
2022/08/26 13:46:56;;;;;;;10.88;5.00;;;;;;;;;;5070645;28;20016;-69
2022/08/26 13:49:21;;;;;;;12.05;5.90;;;;;;;;;;5068314;28;20052;-66
2022/08/26 13:51:46;;;;;;;14.18;5.82;;;;;;;;;;5069499;28;20063;-67
2022/08/26 13:54:12;;;;;;;11.50;3.20;;;;;;;;;;5068698;28;20035;-65
2022/08/26 13:56:37;;;;;;;26.13;3.10;;;;;;;;;;5068817;28;20298;-68
2022/08/26 13:59:02;;;;;;;7.50;2.47;;;;;;;;;;5070457;28;20016;-65
2022/08/26 14:01:28;;;;;;;11.00;2.40;;;;;;;;;;5071276;28;20033;-66
2022/08/26 14:03:54;;;;;;;16.55;1.95;;;;;;;;;;5069582;28;20028;-67
2022/08/26 14:06:19;;;;;;;12.25;2.65;;;;;;;;;;5070609;28;20037;-66
2022/08/26 14:08:44;;;;;;;7.10;1.60;;;;;;;;;;5071095;28;20070;-65
2022/08/26 14:11:10;;;;;;;24.65;5.07;;;;;;;;;;5069540;28;20020;-65
2022/08/26 14:13:35;;;;;;;16.87;3.07;;;;;;;;;;5070948;28;20020;-68
2022/08/26 14:16:01;;;;;;;8.80;2.25;;;;;;;;;;5068416;28;20301;-68
2022/08/26 14:18:38;;;;;;;10.40;2.38;;;;;;;;;;5070568;28;20473;-65
2022/08/26 14:21:04;;;;;;;15.90;2.97;;;;;;;;;;5068977;28;20023;-67
2022/08/26 14:23:29;;;;;;;14.15;2.38;;;;;;;;;;5067665;28;20163;-69
2022/08/26 14:25:54;;;;;;;5.80;2.10;;;;;;;;;;5065734;28;20111;-66
2022/08/26 14:28:20;;;;;;;14.43;3.33;;;;;;;;;;5070052;28;20012;-68
2022/08/26 14:30:48;;;;;;;10.20;2.40;;;;;;;;;;5068569;28;20572;-65